createdAt,value
2022-10-05T03:01:47.036Z,7.50
2022-10-05T03:04:27.803Z,6.78
2022-10-05T03:07:05.777Z,7.00
2022-10-05T03:09:42.211Z,7.18
2022-10-05T03:12:19.325Z,7.18
2022-10-05T03:15:00.434Z,7.63
2022-10-05T03:17:35.719Z,8.05
2022-10-05T03:20:18.069Z,7.40
2022-10-05T03:22:51.621Z,7.97
2022-10-05T03:25:41.071Z,7.75
2022-10-05T03:28:16.768Z,8.23
2022-10-05T03:30:54.646Z,7.97
2022-10-05T03:33:37.300Z,9.07
2022-10-05T03:36:12.027Z,8.73
2022-10-05T03:38:45.085Z,8.45
2022-10-05T03:41:23.113Z,9.18
2022-10-05T03:44:09.527Z,9.20
2022-10-05T03:46:50.377Z,9.13
2022-10-05T03:49:28.286Z,8.98
2022-10-05T03:52:01.867Z,9.23
2022-10-05T03:54:36.038Z,9.10
2022-10-05T03:57:10.798Z,9.20
2022-10-05T03:59:43.987Z,8.93
2022-10-05T04:02:19.293Z,8.75
2022-10-05T04:04:53.653Z,8.77
2022-10-05T04:07:42.658Z,8.70
2022-10-05T04:10:17.472Z,9.25
2022-10-05T04:12:50.527Z,8.77
2022-10-05T04:15:27.221Z,8.50
2022-10-05T04:17:59.082Z,8.75
2022-10-05T04:20:35.536Z,8.73
2022-10-05T04:23:13.699Z,8.75
2022-10-05T04:25:45.328Z,8.77
2022-10-05T04:28:21.390Z,9.10
2022-10-05T04:30:52.326Z,8.95
2022-10-05T04:33:21.502Z,8.30
2022-10-05T04:36:12.196Z,8.30
2022-10-05T04:38:53.563Z,7.88
2022-10-05T04:41:41.090Z,8.27
2022-10-05T04:44:21.454Z,8.77
2022-10-05T04:47:06.754Z,8.75
2022-10-05T04:50:14.506Z,8.82
2022-10-05T04:53:04.735Z,7.68
2022-10-05T04:55:41.004Z,8.00
2022-10-05T04:58:20.194Z,8.35
2022-10-05T05:00:59.806Z,8.13
2022-10-05T05:03:49.763Z,8.10
2022-10-05T05:06:25.417Z,8.07
2022-10-05T05:09:33.368Z,8.52
2022-10-05T05:12:08.983Z,8.20
2022-10-05T05:14:51.902Z,8.05
2022-10-05T05:17:37.012Z,8.23
2022-10-05T05:20:19.650Z,9.20
2022-10-05T05:22:53.789Z,8.77
2022-10-05T05:25:39.723Z,8.15
2022-10-05T05:28:21.563Z,8.30
2022-10-05T05:30:54.643Z,8.48
2022-10-05T05:33:27.291Z,9.02
2022-10-05T05:36:27.473Z,9.05
2022-10-05T05:39:16.697Z,8.60
2022-10-05T05:41:52.837Z,9.40
2022-10-05T05:44:24.722Z,8.98
2022-10-05T05:47:04.012Z,8.85
2022-10-05T05:49:50.727Z,10.02
2022-10-05T05:52:23.504Z,9.60
2022-10-05T05:54:58.460Z,9.55
2022-10-05T05:57:33.393Z,10.00
2022-10-05T06:00:08.271Z,9.90
2022-10-05T06:02:52.653Z,10.05
2022-10-05T06:05:31.227Z,9.70
2022-10-05T06:08:07.092Z,8.80
2022-10-05T06:10:42.625Z,10.15
2022-10-05T06:13:18.133Z,9.35
2022-10-05T06:15:50.535Z,9.98
2022-10-05T06:18:21.241Z,9.88
2022-10-05T06:20:55.751Z,10.02
2022-10-05T06:23:29.942Z,10.57
2022-10-05T06:26:18.930Z,10.13
2022-10-05T06:28:53.636Z,11.50
2022-10-05T06:31:35.140Z,10.63
2022-10-05T06:34:14.656Z,10.38
2022-10-05T06:36:48.930Z,10.32
2022-10-05T06:39:46.175Z,9.95
2022-10-05T06:42:47.607Z,10.32
2022-10-05T06:45:28.681Z,10.07
2022-10-05T06:48:32.287Z,10.18
2022-10-05T06:51:26.854Z,10.32
2022-10-05T06:54:22.805Z,10.95
2022-10-05T06:57:00.000Z,9.65
2022-10-05T06:59:37.304Z,9.98
2022-10-05T07:02:12.642Z,9.93
2022-10-05T07:05:06.928Z,10.65
2022-10-05T07:07:41.964Z,9.80
2022-10-05T07:10:22.037Z,10.43
2022-10-05T07:13:11.647Z,10.45
2022-10-05T07:15:45.768Z,10.45
2022-10-05T07:18:33.117Z,10.95
2022-10-05T07:21:10.310Z,10.93
2022-10-05T07:23:48.958Z,11.13
2022-10-05T07:26:24.156Z,10.73
2022-10-05T07:28:58.407Z,10.75
2022-10-05T07:31:33.518Z,11.60
2022-10-05T07:34:10.587Z,10.77
2022-10-05T07:37:01.666Z,11.05
2022-10-05T07:39:59.142Z,10.52
2022-10-05T07:42:43.799Z,11.10
2022-10-05T07:45:26.965Z,11.35
2022-10-05T07:47:57.767Z,11.32
2022-10-05T07:50:33.024Z,11.90
2022-10-05T07:53:06.284Z,11.30
2022-10-05T07:55:37.879Z,11.13
2022-10-05T07:58:15.454Z,11.13
2022-10-05T08:00:58.719Z,12.27
2022-10-05T08:03:35.869Z,11.75
2022-10-05T08:06:07.262Z,11.57
2022-10-05T08:08:44.077Z,11.27
2022-10-05T08:11:17.038Z,11.05
2022-10-05T08:13:53.967Z,11.43
2022-10-05T08:16:25.618Z,11.02
2022-10-05T08:18:58.146Z,12.43
2022-10-05T08:21:34.866Z,11.43
2022-10-05T08:24:12.956Z,11.57
2022-10-05T08:26:50.816Z,11.80
2022-10-05T08:29:27.952Z,11.77
2022-10-05T08:32:01.449Z,11.77
2022-10-05T08:34:36.757Z,11.27
2022-10-05T08:37:09.892Z,11.68
2022-10-05T08:39:42.567Z,11.40
2022-10-05T08:42:52.274Z,12.15
2022-10-05T08:45:55.445Z,11.38
2022-10-05T08:48:59.142Z,11.20
2022-10-05T08:51:53.139Z,10.93
2022-10-05T08:54:44.933Z,10.85
2022-10-05T08:57:38.770Z,11.20
2022-10-05T09:00:12.891Z,10.98
2022-10-05T09:03:02.774Z,11.40
2022-10-05T09:05:51.561Z,11.15
2022-10-05T09:08:53.685Z,11.45
2022-10-05T09:11:27.043Z,10.82
2022-10-05T09:14:32.499Z,10.50
2022-10-05T09:17:18.514Z,10.40
2022-10-05T09:20:01.061Z,10.60
2022-10-05T09:22:38.277Z,11.25
2022-10-05T09:25:18.921Z,10.00
2022-10-05T09:27:54.562Z,10.45
2022-10-05T09:30:33.179Z,11.30
2022-10-05T09:33:34.590Z,10.88
2022-10-05T09:36:34.028Z,10.77
2022-10-05T09:39:40.130Z,10.38
2022-10-05T09:42:31.392Z,9.73
2022-10-05T09:48:29.914Z,10.02
2022-10-05T09:51:28.339Z,10.13
2022-10-05T09:54:29.723Z,9.05
2022-10-05T09:57:45.259Z,9.73
2022-10-05T10:00:28.251Z,9.05
2022-10-05T10:03:20.786Z,9.05
2022-10-05T10:06:22.500Z,9.02
2022-10-05T10:09:10.615Z,9.63
2022-10-05T10:11:53.062Z,9.40
2022-10-05T10:14:42.637Z,10.77
2022-10-05T10:17:33.462Z,9.55
2022-10-05T10:20:17.384Z,13.25
2022-10-05T10:23:08.579Z,14.82
2022-10-05T10:26:03.114Z,9.35
2022-10-05T10:29:01.590Z,8.30
2022-10-05T10:31:46.658Z,7.32
2022-10-05T10:34:37.478Z,7.70
2022-10-05T10:37:31.821Z,6.75
2022-10-05T10:40:27.023Z,7.28
2022-10-05T10:43:32.822Z,6.65
2022-10-05T10:46:08.318Z,6.80
2022-10-05T10:48:55.172Z,6.95
2022-10-05T10:51:45.590Z,6.15
2022-10-05T10:54:33.377Z,5.60
2022-10-05T10:57:09.983Z,6.32
2022-10-05T11:00:22.621Z,5.57
2022-10-05T11:03:08.395Z,5.90
2022-10-05T11:06:03.030Z,5.50
2022-10-05T11:08:59.639Z,5.60
2022-10-05T11:12:16.625Z,5.78
2022-10-05T11:15:17.415Z,5.13
2022-10-05T11:18:02.594Z,5.53
2022-10-05T11:21:05.424Z,5.45
2022-10-05T11:24:04.772Z,5.25
2022-10-05T11:26:59.666Z,4.60
2022-10-05T11:29:59.354Z,4.82
2022-10-05T11:33:11.231Z,4.60
2022-10-05T11:36:22.751Z,4.45
2022-10-05T11:39:12.847Z,4.55
2022-10-05T11:42:02.983Z,4.90
2022-10-05T11:45:00.942Z,4.78
2022-10-05T11:47:32.553Z,4.93
2022-10-05T11:50:12.256Z,5.35
2022-10-05T11:52:44.810Z,4.65
2022-10-05T11:55:25.244Z,3.55
2022-10-05T11:57:57.242Z,3.60
2022-10-05T12:00:30.202Z,3.17
2022-10-05T12:03:28.909Z,3.17
2022-10-05T12:06:15.397Z,3.65
2022-10-05T12:08:55.418Z,3.80
2022-10-05T12:11:53.262Z,3.80
2022-10-05T12:14:38.015Z,3.42
2022-10-05T12:17:15.200Z,2.90
2022-10-05T12:19:47.955Z,3.00
2022-10-05T12:22:21.849Z,3.30
2022-10-05T12:25:07.536Z,3.58
2022-10-05T12:27:40.068Z,3.40
2022-10-05T12:30:17.052Z,3.33
2022-10-05T12:33:01.713Z,3.88
2022-10-05T12:35:47.979Z,3.45
2022-10-05T12:38:24.835Z,3.20
2022-10-05T12:40:59.942Z,2.85
2022-10-05T12:43:38.291Z,3.05
2022-10-05T12:46:19.773Z,3.25
2022-10-05T12:49:05.984Z,3.20
2022-10-05T12:51:41.538Z,3.47
2022-10-05T12:54:22.036Z,3.60
2022-10-05T12:56:55.704Z,3.55
2022-10-05T12:59:39.187Z,3.50
2022-10-05T13:02:18.274Z,3.53
2022-10-05T13:04:52.643Z,3.50
2022-10-05T13:07:38.456Z,3.20
2022-10-05T13:10:27.943Z,3.25
2022-10-05T13:13:06.940Z,3.50
2022-10-05T13:15:46.455Z,3.47
2022-10-05T13:18:24.558Z,3.75
2022-10-05T13:21:04.620Z,3.47
2022-10-05T13:23:46.571Z,3.90
2022-10-05T13:26:19.823Z,3.42
2022-10-05T13:28:56.187Z,3.28
2022-10-05T13:31:29.098Z,3.00
2022-10-05T13:34:12.661Z,3.20
2022-10-05T13:36:50.034Z,3.42
2022-10-05T13:39:31.581Z,4.00
2022-10-05T13:42:06.839Z,4.13
2022-10-05T13:44:43.586Z,4.07
2022-10-05T13:47:17.668Z,3.67
2022-10-05T13:49:54.782Z,3.30
2022-10-05T13:52:39.202Z,3.17
2022-10-05T13:55:16.720Z,3.50
2022-10-05T13:57:53.945Z,3.35
2022-10-05T14:00:26.628Z,3.00
2022-10-05T14:02:57.484Z,3.67
2022-10-05T14:05:28.861Z,2.78
2022-10-05T14:07:58.415Z,2.92
2022-10-05T14:10:48.273Z,3.03
2022-10-05T14:13:23.388Z,3.05
2022-10-05T14:16:04.399Z,2.95
2022-10-05T14:18:34.259Z,2.80
2022-10-05T14:21:15.365Z,2.75
2022-10-05T14:23:44.050Z,3.10
2022-10-05T14:26:33.958Z,2.80
2022-10-05T14:29:04.620Z,3.00
2022-10-05T14:31:35.455Z,3.10
2022-10-05T14:34:29.249Z,2.92
2022-10-05T14:37:01.459Z,2.70
2022-10-05T14:39:34.309Z,2.63
2022-10-05T14:42:15.586Z,2.67
2022-10-05T14:44:43.551Z,3.05
2022-10-05T14:47:22.499Z,2.90
2022-10-05T14:50:10.683Z,2.88
2022-10-05T14:52:41.576Z,2.90
2022-10-05T14:55:24.630Z,2.63
2022-10-05T14:58:03.820Z,2.78
2022-10-05T15:00:38.672Z,2.50
2022-10-05T15:03:23.716Z,2.70
2022-10-05T15:05:54.561Z,3.35
2022-10-05T15:08:38.972Z,2.78
2022-10-05T15:11:09.702Z,3.03
2022-10-05T15:13:41.434Z,2.90
2022-10-05T15:16:18.404Z,2.85
2022-10-05T15:18:55.368Z,2.70
2022-10-05T15:21:42.131Z,3.53
2022-10-05T15:24:19.178Z,2.60
2022-10-05T15:26:51.689Z,2.50
2022-10-05T15:29:35.099Z,2.78
2022-10-05T15:32:11.017Z,2.90
2022-10-05T15:34:44.468Z,2.78
2022-10-05T15:37:17.570Z,2.95
2022-10-05T15:39:53.736Z,2.53
2022-10-05T15:42:30.772Z,2.85
2022-10-05T15:45:06.382Z,3.20
2022-10-05T15:47:47.966Z,3.30
2022-10-05T15:50:21.626Z,3.30
2022-10-05T15:52:55.259Z,3.28
2022-10-05T15:55:42.271Z,3.15
2022-10-05T15:58:32.234Z,2.97
2022-10-05T16:01:08.425Z,2.90
2022-10-05T16:03:48.861Z,2.80
2022-10-05T16:06:46.244Z,2.80
2022-10-05T16:09:33.019Z,2.75
2022-10-05T16:12:14.808Z,2.90
2022-10-05T16:14:56.275Z,3.28
2022-10-05T16:17:56.858Z,3.35
2022-10-05T16:20:32.178Z,5.18
2022-10-05T16:23:06.545Z,6.60
2022-10-05T16:25:48.173Z,7.22
2022-10-05T16:28:39.645Z,4.97
2022-10-05T16:31:17.668Z,4.57
2022-10-05T16:33:56.265Z,4.65
2022-10-05T16:36:40.526Z,4.75
2022-10-05T16:39:15.177Z,4.50
2022-10-05T16:41:50.644Z,5.47
2022-10-05T16:44:33.639Z,3.97
2022-10-05T16:47:09.625Z,3.80
2022-10-05T16:49:47.567Z,4.90
2022-10-05T16:52:19.239Z,3.80
2022-10-05T16:54:52.413Z,4.57
2022-10-05T16:57:23.130Z,4.28
2022-10-05T17:00:16.278Z,4.57
2022-10-05T17:03:02.616Z,5.18
2022-10-05T17:05:45.668Z,6.10
2022-10-05T17:08:45.808Z,5.55
2022-10-05T17:11:27.038Z,5.95
2022-10-05T17:14:15.909Z,6.13
2022-10-05T17:16:57.625Z,5.50
2022-10-05T17:19:38.410Z,5.93
2022-10-05T17:22:15.599Z,5.88
2022-10-05T17:25:01.047Z,5.80
2022-10-05T17:27:35.200Z,5.43
2022-10-05T17:30:23.437Z,5.72
2022-10-05T17:33:04.567Z,6.25
2022-10-05T17:35:50.655Z,16.63
2022-10-05T17:38:21.734Z,7.78
2022-10-05T17:41:16.303Z,8.90
2022-10-05T17:44:24.712Z,7.53
2022-10-05T17:46:55.082Z,6.88
2022-10-05T17:49:47.198Z,8.57
2022-10-05T17:52:44.355Z,7.32
2022-10-05T17:55:30.005Z,7.03
2022-10-05T17:58:00.663Z,5.63
2022-10-05T18:00:55.907Z,5.80
2022-10-05T18:03:45.036Z,5.90
2022-10-05T18:06:37.353Z,4.43
2022-10-05T18:09:37.571Z,5.30
2022-10-05T18:12:26.062Z,5.78
2022-10-05T18:15:02.870Z,5.88
2022-10-05T18:17:51.239Z,9.68
2022-10-05T18:20:31.413Z,8.52
2022-10-05T18:23:35.594Z,7.30
2022-10-05T18:26:09.010Z,8.55
2022-10-05T18:28:52.934Z,9.30
2022-10-05T18:31:31.879Z,9.57
2022-10-05T18:34:13.971Z,10.80
2022-10-05T18:36:57.501Z,15.43
2022-10-05T18:39:42.370Z,22.20
2022-10-05T18:42:22.823Z,18.25
2022-10-05T18:44:56.656Z,18.88
2022-10-05T18:47:31.308Z,19.15
2022-10-05T18:50:23.992Z,17.15
2022-10-05T18:53:04.594Z,15.35
2022-10-05T18:55:38.879Z,14.32
2022-10-05T18:58:17.477Z,11.88
2022-10-05T19:01:19.366Z,9.93
2022-10-05T19:04:02.061Z,8.20
2022-10-05T19:06:33.993Z,5.57
2022-10-05T19:09:15.446Z,4.53
2022-10-05T19:11:53.726Z,4.60
2022-10-05T19:14:31.709Z,5.00
2022-10-05T19:17:19.118Z,4.72
2022-10-05T19:20:17.278Z,4.93
2022-10-05T19:23:09.398Z,4.70
2022-10-05T19:25:40.408Z,4.70
2022-10-05T19:28:18.940Z,4.78
2022-10-05T19:30:58.135Z,4.65
2022-10-05T19:33:50.755Z,4.50
2022-10-05T19:36:31.801Z,4.63
2022-10-05T19:39:07.662Z,4.88
2022-10-05T19:41:47.803Z,5.40
2022-10-05T19:44:28.778Z,5.07
2022-10-05T19:47:02.554Z,4.43
2022-10-05T19:49:44.501Z,4.90
2022-10-05T19:52:14.513Z,4.63
2022-10-05T19:54:42.949Z,4.82
2022-10-05T19:57:17.996Z,5.00
2022-10-05T19:59:48.931Z,4.60
2022-10-05T20:02:18.259Z,4.60
2022-10-05T20:04:49.469Z,4.25
2022-10-05T20:07:21.413Z,4.40
2022-10-05T20:09:56.613Z,4.10
2022-10-05T20:12:51.534Z,4.95
2022-10-05T20:15:40.380Z,4.80
2022-10-05T20:18:57.559Z,5.63
2022-10-05T20:21:45.125Z,7.72
2022-10-05T20:24:15.804Z,13.82
2022-10-05T20:27:16.187Z,11.45
2022-10-05T20:29:45.637Z,9.75
2022-10-05T20:32:18.142Z,8.77
2022-10-05T20:34:49.249Z,9.48
2022-10-05T20:37:18.611Z,9.18
2022-10-05T20:39:47.223Z,8.68
2022-10-05T20:42:15.582Z,8.57
2022-10-05T20:44:44.294Z,8.25
2022-10-05T20:47:12.321Z,9.88
2022-10-05T20:49:42.067Z,7.60
2022-10-05T20:52:12.223Z,6.32
2022-10-05T20:54:40.530Z,5.80
2022-10-05T20:57:09.571Z,6.03
2022-10-05T20:59:38.232Z,5.47
2022-10-05T21:02:06.923Z,5.40
2022-10-05T21:04:40.781Z,5.70
2022-10-05T21:07:11.119Z,5.57
2022-10-05T21:09:40.829Z,5.82
2022-10-05T21:12:08.863Z,5.82
2022-10-05T21:14:37.620Z,5.57
2022-10-05T21:17:06.134Z,5.50
2022-10-05T21:19:38.192Z,5.38
2022-10-05T21:22:08.064Z,5.40
2022-10-05T21:24:38.411Z,5.60
2022-10-05T21:27:06.987Z,5.65
2022-10-05T21:29:36.398Z,4.90
